Time;durP1;ratioP1;P1;durP2;ratioP2;P2;SDS_P1;SDS_P2;PMS_P1;PMS_P2;Temp;Humidity;BMP_temperature;BMP_pressure;BME280_temperature;BME280_humidity;BME280_pressure;Samples;Min_cycle;Max_cycle;Signal;HPM_P1;HPM_P2
2021/04/23 00:00:24;;;;;;;22.98;8.27;;;5.20;99.90;;;;;;5031945;28;20065;-47
2021/04/23 00:02:52;;;;;;;27.42;9.02;;;5.10;99.90;;;;;;5031934;28;20052;-47
2021/04/23 00:05:17;;;;;;;22.85;8.77;;;5.20;99.90;;;;;;5031734;28;20068;-46
2021/04/23 00:07:43;;;;;;;24.80;9.05;;;5.20;99.90;;;;;;5030158;28;20268;-47
2021/04/23 00:10:11;;;;;;;22.55;8.88;;;5.10;99.90;;;;;;5030343;28;20501;-45
2021/04/23 00:12:37;;;;;;;19.67;8.68;;;5.10;99.90;;;;;;5031760;28;20029;-47
2021/04/23 00:15:07;;;;;;;21.17;8.93;;;5.10;99.90;;;;;;5030310;28;20026;-47
2021/04/23 00:17:32;;;;;;;25.63;8.98;;;5.10;99.90;;;;;;5031322;28;20030;-46
2021/04/23 00:19:58;;;;;;;20.88;8.27;;;5.10;99.90;;;;;;5030197;28;20067;-49
2021/04/23 00:22:23;;;;;;;21.77;8.35;;;5.10;99.90;;;;;;5031572;28;20036;-48
2021/04/23 00:24:49;;;;;;;28.77;8.57;;;5.10;99.90;;;;;;5031491;28;20113;-48
2021/04/23 00:27:14;;;;;;;20.52;8.80;;;5.00;99.90;;;;;;5031217;28;20258;-47
2021/04/23 00:29:40;;;;;;;24.10;8.98;;;5.00;99.90;;;;;;5030956;28;20458;-47
2021/04/23 00:32:06;;;;;;;20.65;9.25;;;5.00;99.90;;;;;;5031743;28;20020;-49
2021/04/23 00:34:32;;;;;;;23.40;8.20;;;4.90;99.90;;;;;;5031144;28;20061;-46
2021/04/23 00:36:59;;;;;;;21.88;9.18;;;4.90;99.90;;;;;;5031236;28;20029;-47
2021/04/23 00:39:24;;;;;;;22.13;9.35;;;5.00;99.90;;;;;;5030842;28;20025;-47
2021/04/23 00:41:50;;;;;;;25.90;9.75;;;5.00;99.90;;;;;;5031178;28;20032;-49
2021/04/23 00:44:16;;;;;;;24.10;8.88;;;5.00;99.90;;;;;;5031057;28;20027;-47
2021/04/23 00:46:42;;;;;;;19.95;8.00;;;5.10;99.90;;;;;;5031068;28;20040;-46
2021/04/23 00:49:09;;;;;;;26.73;10.27;;;5.10;99.90;;;;;;5029630;28;20029;-49
2021/04/23 00:51:41;;;;;;;22.00;9.65;;;5.20;99.90;;;;;;5031252;28;20049;-48
2021/04/23 00:54:08;;;;;;;16.92;8.23;;;5.20;99.90;;;;;;5031168;28;20121;-49
2021/04/23 00:56:38;;;;;;;24.80;8.63;;;5.20;99.90;;;;;;5031277;28;20037;-48
2021/04/23 00:59:05;;;;;;;24.20;8.98;;;5.20;99.90;;;;;;5030426;28;20033;-48
2021/04/23 01:01:38;;;;;;;18.67;9.20;;;5.20;99.90;;;;;;5030602;28;20026;-49
2021/04/23 01:04:08;;;;;;;22.52;9.23;;;5.20;99.90;;;;;;5030387;28;20108;-48
2021/04/23 01:06:35;;;;;;;20.52;7.90;;;5.20;99.90;;;;;;5030630;28;20033;-48
2021/04/23 01:09:16;;;;;;;24.92;8.85;;;5.20;99.90;;;;;;5030255;28;20045;-47
2021/04/23 01:11:43;;;;;;;20.83;8.55;;;5.20;99.90;;;;;;5030871;28;20021;-46
2021/04/23 01:14:09;;;;;;;21.20;9.38;;;5.30;99.90;;;;;;5031147;28;20034;-46
2021/04/23 01:16:36;;;;;;;24.23;9.10;;;5.30;99.90;;;;;;5030559;28;20479;-47
2021/04/23 01:19:03;;;;;;;20.48;9.00;;;5.40;99.90;;;;;;5029734;28;20256;-48
2021/04/23 01:21:32;;;;;;;22.95;9.50;;;5.40;99.90;;;;;;5030394;28;20538;-48
2021/04/23 01:23:59;;;;;;;23.67;9.55;;;5.40;99.90;;;;;;5030456;28;20403;-47
2021/04/23 01:26:28;;;;;;;28.17;10.13;;;5.50;99.90;;;;;;5030885;28;20025;-46
2021/04/23 01:28:55;;;;;;;22.35;8.52;;;5.50;99.90;;;;;;5028375;28;20021;-48
2021/04/23 01:31:24;;;;;;;27.33;9.60;;;5.50;99.90;;;;;;5030150;28;20037;-47
2021/04/23 01:33:58;;;;;;;20.60;8.38;;;5.50;99.90;;;;;;5029934;28;20033;-49
2021/04/23 01:36:24;;;;;;;26.20;8.75;;;5.50;99.90;;;;;;5028551;28;20107;-46
2021/04/23 01:38:50;;;;;;;17.85;8.18;;;5.50;99.90;;;;;;5029625;28;20029;-48
2021/04/23 01:41:16;;;;;;;21.60;9.82;;;5.50;99.90;;;;;;5030192;28;20029;-47
2021/04/23 01:43:43;;;;;;;18.88;8.77;;;5.60;99.90;;;;;;5030035;28;20030;-47
2021/04/23 01:46:10;;;;;;;18.10;7.57;;;5.50;99.90;;;;;;5029839;28;20021;-48
2021/04/23 01:48:36;;;;;;;22.67;8.60;;;5.60;99.90;;;;;;5028481;28;20032;-46
2021/04/23 01:51:05;;;;;;;18.75;8.75;;;5.60;99.90;;;;;;5028505;28;20116;-48
2021/04/23 01:53:31;;;;;;;17.95;8.13;;;5.70;99.90;;;;;;5028790;28;20273;-48
2021/04/23 01:55:56;;;;;;;15.77;7.20;;;5.70;99.90;;;;;;5029973;28;20033;-46
2021/04/23 01:58:22;;;;;;;27.10;9.15;;;5.80;99.90;;;;;;5028719;28;20048;-47
2021/04/23 02:00:50;;;;;;;24.05;8.02;;;5.70;99.90;;;;;;5028911;28;20172;-49
2021/04/23 02:03:18;;;;;;;26.45;8.35;;;5.80;99.90;;;;;;5028314;28;20022;-48
2021/04/23 02:05:45;;;;;;;23.08;8.18;;;5.80;99.90;;;;;;5028894;28;20024;-49
2021/04/23 02:08:13;;;;;;;21.25;7.50;;;5.80;99.90;;;;;;5028335;28;20475;-48
2021/04/23 02:10:42;;;;;;;31.42;9.05;;;5.80;99.90;;;;;;5028986;28;20108;-50
2021/04/23 02:13:08;;;;;;;17.33;9.30;;;5.90;99.90;;;;;;5028623;28;20068;-47
2021/04/23 02:15:34;;;;;;;27.35;7.97;;;5.80;99.90;;;;;;5027862;28;20099;-48
2021/04/23 02:18:00;;;;;;;23.88;8.27;;;5.80;99.90;;;;;;5028450;28;20033;-47
2021/04/23 02:20:28;;;;;;;22.20;8.55;;;5.90;99.90;;;;;;5028917;28;20026;-49
2021/04/23 02:22:56;;;;;;;22.42;8.40;;;6.00;99.90;;;;;;5029453;28;20021;-50
2021/04/23 02:25:22;;;;;;;27.63;9.10;;;5.90;99.90;;;;;;5029364;28;20056;-48
2021/04/23 02:27:49;;;;;;;17.88;8.68;;;6.00;99.90;;;;;;5027614;28;20052;-46
2021/04/23 02:30:22;;;;;;;20.20;8.25;;;6.00;99.90;;;;;;5028314;28;20017;-47
2021/04/23 02:32:47;;;;;;;24.13;7.78;;;6.10;99.90;;;;;;5027773;28;20095;-49
2021/04/23 02:35:14;;;;;;;21.75;8.50;;;6.10;99.90;;;;;;5027840;28;20644;-47
2021/04/23 02:37:41;;;;;;;20.45;7.85;;;6.10;99.90;;;;;;5026841;28;20041;-46
2021/04/23 02:40:10;;;;;;;21.30;8.25;;;6.10;99.90;;;;;;5027566;28;20033;-46
2021/04/23 02:42:35;;;;;;;16.15;7.53;;;6.00;99.90;;;;;;5027505;28;20044;-46
2021/04/23 02:45:03;;;;;;;19.88;8.30;;;6.00;99.90;;;;;;5027782;28;20021;-49
2021/04/23 02:47:29;;;;;;;23.75;7.90;;;6.10;99.90;;;;;;5026952;28;20032;-49
2021/04/23 02:49:54;;;;;;;15.98;7.15;;;6.10;99.90;;;;;;5027559;28;20022;-48
2021/04/23 02:52:20;;;;;;;18.02;7.28;;;6.10;99.90;;;;;;5027398;28;20093;-47
2021/04/23 02:54:46;;;;;;;19.67;7.85;;;6.10;99.90;;;;;;5027388;28;20065;-48
2021/04/23 02:57:15;;;;;;;22.05;7.65;;;6.10;99.90;;;;;;5027364;28;20018;-47
2021/04/23 02:59:42;;;;;;;21.33;9.20;;;6.10;99.90;;;;;;5027088;28;20029;-47
2021/04/23 03:02:08;;;;;;;18.52;7.30;;;6.10;99.90;;;;;;5028820;28;20060;-47
2021/04/23 03:04:33;;;;;;;12.75;7.30;;;6.20;99.90;;;;;;5028395;28;20495;-47
2021/04/23 03:06:59;;;;;;;21.90;8.30;;;6.10;99.90;;;;;;5028824;28;20030;-49
2021/04/23 03:09:24;;;;;;;19.95;7.30;;;6.20;99.90;;;;;;5026640;28;20026;-47
2021/04/23 03:11:50;;;;;;;20.60;7.43;;;6.10;99.90;;;;;;5028448;28;20052;-46
2021/04/23 03:14:15;;;;;;;17.50;7.38;;;6.10;99.90;;;;;;5028889;28;20216;-48
2021/04/23 03:16:43;;;;;;;20.52;7.75;;;6.10;99.90;;;;;;5028443;28;20033;-47
2021/04/23 03:19:14;;;;;;;25.17;8.07;;;6.20;99.90;;;;;;5027420;28;20055;-45
2021/04/23 03:21:40;;;;;;;21.15;7.88;;;6.30;99.90;;;;;;5027164;28;20515;-50
2021/04/23 03:24:07;;;;;;;18.42;7.47;;;6.30;99.90;;;;;;5028311;28;20040;-47
2021/04/23 03:26:33;;;;;;;29.27;7.20;;;6.30;99.90;;;;;;5032067;28;20483;-46
2021/04/23 03:28:59;;;;;;;17.50;7.22;;;6.20;99.90;;;;;;5031767;28;20033;-46
2021/04/23 03:31:24;;;;;;;24.20;7.95;;;6.20;99.90;;;;;;5032554;28;20391;-48
2021/04/23 03:33:50;;;;;;;16.88;7.10;;;6.20;99.90;;;;;;5032350;28;20031;-46
2021/04/23 03:36:15;;;;;;;18.27;7.47;;;6.10;99.90;;;;;;5031024;28;20033;-49
2021/04/23 03:38:44;;;;;;;15.05;6.97;;;6.10;99.90;;;;;;5031533;28;20025;-47
2021/04/23 03:41:13;;;;;;;15.75;6.55;;;6.20;99.90;;;;;;5032113;28;20049;-47
2021/04/23 03:43:39;;;;;;;18.52;7.05;;;6.20;99.90;;;;;;5032073;28;20482;-48
2021/04/23 03:46:05;;;;;;;17.08;6.80;;;6.30;99.90;;;;;;5032462;28;20394;-48
2021/04/23 03:48:31;;;;;;;16.20;6.80;;;6.20;99.90;;;;;;5030631;28;20633;-46
2021/04/23 03:50:57;;;;;;;15.85;6.60;;;6.20;99.90;;;;;;5032185;28;20109;-47
2021/04/23 03:53:23;;;;;;;14.60;7.63;;;6.20;99.90;;;;;;5032131;28;20060;-49
2021/04/23 03:55:52;;;;;;;16.55;7.15;;;6.20;99.90;;;;;;5030915;28;20056;-49
2021/04/23 03:58:19;;;;;;;17.92;6.45;;;6.20;99.90;;;;;;5031527;28;20029;-47
2021/04/23 04:00:51;;;;;;;14.57;6.75;;;6.20;99.90;;;;;;5032400;28;20438;-48
2021/04/23 04:03:19;;;;;;;16.38;8.02;;;6.20;99.90;;;;;;5031744;28;20025;-46
2021/04/23 04:05:45;;;;;;;22.02;7.32;;;6.20;99.90;;;;;;5030763;28;20026;-45
2021/04/23 04:08:11;;;;;;;17.70;7.82;;;6.20;99.90;;;;;;5031086;28;20025;-45
2021/04/23 04:10:37;;;;;;;20.02;8.20;;;6.20;99.90;;;;;;5031561;28;20079;-46
2021/04/23 04:13:04;;;;;;;24.42;7.18;;;6.20;99.90;;;;;;5031737;28;20029;-47
2021/04/23 04:15:30;;;;;;;15.68;6.45;;;6.20;99.90;;;;;;5031620;28;20026;-47
2021/04/23 04:17:56;;;;;;;21.33;7.75;;;6.20;99.90;;;;;;5030914;28;20022;-46
2021/04/23 04:20:24;;;;;;;16.15;7.05;;;6.20;99.90;;;;;;5031239;28;20026;-46
2021/04/23 04:22:50;;;;;;;16.05;6.57;;;6.20;99.90;;;;;;5031545;28;20087;-46
2021/04/23 04:25:24;;;;;;;25.45;7.65;;;6.20;99.90;;;;;;5031531;28;20390;-45
2021/04/23 04:27:50;;;;;;;21.27;7.63;;;6.20;99.90;;;;;;5031366;28;20435;-47
2021/04/23 04:30:16;;;;;;;20.98;8.02;;;6.20;99.90;;;;;;5031509;28;20091;-49
2021/04/23 04:32:42;;;;;;;24.90;7.35;;;6.30;99.90;;;;;;5031756;28;20099;-48
2021/04/23 04:35:08;;;;;;;20.30;7.78;;;6.30;99.90;;;;;;5030971;28;20126;-47
2021/04/23 04:37:34;;;;;;;19.63;8.45;;;6.30;99.90;;;;;;5030381;28;20021;-49
2021/04/23 04:39:59;;;;;;;21.05;8.90;;;6.20;99.90;;;;;;5031183;28;20525;-47
2021/04/23 04:42:26;;;;;;;27.25;8.48;;;6.30;99.90;;;;;;5031205;28;20269;-49
2021/04/23 04:44:51;;;;;;;20.08;8.05;;;6.20;99.90;;;;;;5029814;28;20119;-50
2021/04/23 04:47:17;;;;;;;18.45;7.40;;;6.20;99.90;;;;;;5030863;28;20030;-47
2021/04/23 04:49:44;;;;;;;17.92;7.55;;;6.30;99.90;;;;;;5030246;28;20442;-48
2021/04/23 04:52:09;;;;;;;20.52;7.25;;;6.30;99.90;;;;;;5030952;28;20026;-49
2021/04/23 04:54:35;;;;;;;21.00;8.05;;;6.30;99.90;;;;;;5030947;28;20079;-46
2021/04/23 04:57:01;;;;;;;26.35;9.43;;;6.30;99.90;;;;;;5031227;28;20145;-49
2021/04/23 04:59:26;;;;;;;17.15;8.18;;;6.30;99.90;;;;;;5029834;28;20483;-47
2021/04/23 05:01:52;;;;;;;23.83;8.30;;;6.30;99.90;;;;;;5029751;28;20028;-46
2021/04/23 05:04:18;;;;;;;22.38;7.95;;;6.40;99.90;;;;;;5029588;28;20075;-46
2021/04/23 05:06:43;;;;;;;22.60;7.85;;;6.40;99.90;;;;;;5029468;28;20032;-47
2021/04/23 05:09:09;;;;;;;20.98;7.97;;;6.40;99.90;;;;;;5029933;28;20387;-46
2021/04/23 05:11:34;;;;;;;20.15;7.68;;;6.40;99.90;;;;;;5030829;28;20488;-46
2021/04/23 05:14:00;;;;;;;25.50;8.93;;;6.50;99.90;;;;;;5030705;28;20305;-46
2021/04/23 05:16:27;;;;;;;20.98;8.55;;;6.50;99.90;;;;;;5030371;28;20365;-46
2021/04/23 05:18:52;;;;;;;23.88;7.80;;;6.50;99.90;;;;;;5029050;28;20030;-46
2021/04/23 05:21:18;;;;;;;15.93;7.55;;;6.50;99.90;;;;;;5028941;28;20402;-46
2021/04/23 05:23:44;;;;;;;25.63;8.45;;;6.50;99.90;;;;;;5029258;28;20025;-45
2021/04/23 05:26:09;;;;;;;27.08;9.43;;;6.60;99.90;;;;;;5030497;28;20325;-45
2021/04/23 05:28:35;;;;;;;26.33;8.70;;;6.60;99.90;;;;;;5029463;28;20037;-47
2021/04/23 05:31:02;;;;;;;17.63;7.28;;;6.60;99.90;;;;;;5025334;28;20041;-44
2021/04/23 05:33:28;;;;;;;20.52;8.73;;;6.70;99.90;;;;;;5010212;28;20032;-47
2021/04/23 05:35:54;;;;;;;29.40;8.98;;;6.70;99.90;;;;;;5023274;28;20030;-45
2021/04/23 05:38:20;;;;;;;23.60;8.95;;;6.70;99.90;;;;;;5029371;28;20029;-46
2021/04/23 05:40:47;;;;;;;23.25;8.73;;;6.70;99.90;;;;;;5027014;28;20038;-46
2021/04/23 05:43:14;;;;;;;19.33;8.35;;;6.80;99.90;;;;;;5031691;28;20497;-47
2021/04/23 05:45:41;;;;;;;17.58;8.23;;;6.80;99.90;;;;;;5031266;28;20021;-46
2021/04/23 05:48:08;;;;;;;22.88;8.43;;;6.80;99.90;;;;;;5028206;28;20026;-46
2021/04/23 05:50:34;;;;;;;25.13;9.15;;;6.90;99.90;;;;;;5034789;28;20057;-46
2021/04/23 05:53:00;;;;;;;19.15;9.80;;;7.00;99.90;;;;;;5036102;28;20102;-47
2021/04/23 05:55:26;;;;;;;20.40;7.75;;;7.00;99.90;;;;;;5034566;28;20061;-50
2021/04/23 05:57:56;;;;;;;34.60;9.15;;;7.10;99.90;;;;;;5029903;28;20036;-49
2021/04/23 06:00:24;;;;;;;23.17;9.30;;;7.10;99.90;;;;;;5031617;28;20026;-48
2021/04/23 06:02:50;;;;;;;21.17;8.27;;;7.10;99.90;;;;;;5047313;28;20044;-47
2021/04/23 06:05:17;;;;;;;23.35;8.50;;;7.10;99.90;;;;;;5039808;28;20244;-48
2021/04/23 06:07:43;;;;;;;23.63;7.72;;;7.20;99.90;;;;;;5029266;28;20037;-46
2021/04/23 06:10:11;;;;;;;24.70;8.63;;;7.20;99.90;;;;;;5029452;28;20029;-46
2021/04/23 06:12:38;;;;;;;22.85;8.15;;;7.30;99.90;;;;;;5029571;28;20056;-49
2021/04/23 06:15:05;;;;;;;18.13;6.95;;;7.40;99.90;;;;;;5029371;28;20049;-47
2021/04/23 06:17:30;;;;;;;20.05;7.03;;;7.30;99.90;;;;;;5028822;28;20499;-48
2021/04/23 06:19:57;;;;;;;21.73;7.80;;;7.30;99.90;;;;;;5030553;28;20031;-45
2021/04/23 06:22:22;;;;;;;23.63;7.93;;;7.30;99.90;;;;;;5029485;28;20445;-48
2021/04/23 06:24:48;;;;;;;19.27;6.78;;;7.40;99.90;;;;;;5029467;28;20033;-47
2021/04/23 06:27:14;;;;;;;22.88;7.05;;;7.50;99.90;;;;;;5029199;28;20072;-47
2021/04/23 06:29:40;;;;;;;15.90;7.28;;;7.50;99.90;;;;;;5027929;28;20237;-46
2021/04/23 06:32:06;;;;;;;19.23;6.82;;;7.60;99.90;;;;;;5032019;28;20086;-47
2021/04/23 06:34:31;;;;;;;16.25;6.45;;;7.70;99.90;;;;;;5045611;28;20029;-48
2021/04/23 06:36:57;;;;;;;15.77;6.80;;;7.70;99.90;;;;;;5029135;28;20052;-47
2021/04/23 06:39:23;;;;;;;15.23;6.00;;;7.70;99.90;;;;;;5028499;28;20382;-46
2021/04/23 06:41:48;;;;;;;18.05;6.43;;;7.70;99.90;;;;;;5028819;28;20494;-46
2021/04/23 06:44:14;;;;;;;17.38;7.07;;;7.70;99.90;;;;;;5027895;28;20333;-47
2021/04/23 06:46:41;;;;;;;19.58;6.28;;;7.70;99.90;;;;;;5041250;28;20382;-46
2021/04/23 06:49:06;;;;;;;15.20;6.45;;;7.70;99.90;;;;;;5033887;28;20107;-49
2021/04/23 06:51:32;;;;;;;23.52;6.60;;;7.80;99.90;;;;;;5029205;28;20122;-50
2021/04/23 06:53:58;;;;;;;24.83;6.78;;;7.90;99.90;;;;;;5029249;28;20021;-46
2021/04/23 06:56:23;;;;;;;16.50;5.90;;;8.00;99.90;;;;;;5027485;28;20036;-47
2021/04/23 06:58:49;;;;;;;15.85;6.35;;;8.00;99.90;;;;;;5027959;28;20033;-46
2021/04/23 07:01:16;;;;;;;19.88;6.65;;;8.00;99.90;;;;;;5028256;28;20438;-49
2021/04/23 07:03:42;;;;;;;13.85;5.80;;;8.00;99.90;;;;;;5028611;28;20547;-48
2021/04/23 07:06:08;;;;;;;18.90;6.82;;;8.00;99.90;;;;;;5028240;28;20109;-46
2021/04/23 07:08:35;;;;;;;21.05;7.72;;;8.00;99.90;;;;;;5027841;28;20030;-47
2021/04/23 07:11:00;;;;;;;17.88;7.55;;;7.80;99.90;;;;;;5028443;28;20021;-47
2021/04/23 07:13:27;;;;;;;16.63;7.13;;;7.70;99.90;;;;;;5027236;28;20033;-50
2021/04/23 07:15:52;;;;;;;23.20;6.68;;;7.80;99.90;;;;;;5026995;28;20028;-48
2021/04/23 07:18:18;;;;;;;20.95;6.60;;;7.80;99.90;;;;;;5021570;28;20117;-46
2021/04/23 07:20:43;;;;;;;18.20;6.00;;;7.90;99.90;;;;;;5008627;28;20026;-49
2021/04/23 07:23:09;;;;;;;25.88;6.40;;;7.90;99.90;;;;;;5008776;28;20026;-49
2021/04/23 07:25:35;;;;;;;21.92;6.82;;;8.00;99.90;;;;;;5008684;28;20038;-48
2021/04/23 07:28:00;;;;;;;17.67;6.68;;;8.00;99.90;;;;;;5006704;28;20472;-47
2021/04/23 07:30:29;;;;;;;19.02;6.53;;;7.90;99.90;;;;;;5008563;28;20029;-49
2021/04/23 07:32:56;;;;;;;12.95;6.45;;;8.10;99.90;;;;;;5016682;28;20033;-48
2021/04/23 07:35:22;;;;;;;18.77;6.38;;;8.20;99.90;;;;;;5027103;28;20025;-48
2021/04/23 07:37:47;;;;;;;22.70;6.75;;;8.30;99.90;;;;;;5026964;28;20502;-49
2021/04/23 07:40:16;;;;;;;20.80;6.50;;;8.30;99.90;;;;;;5027789;28;20025;-49
2021/04/23 07:42:42;;;;;;;20.33;6.72;;;8.40;99.90;;;;;;5027707;28;20032;-48
2021/04/23 07:45:09;;;;;;;21.67;6.50;;;8.50;99.90;;;;;;5027784;28;20088;-47
2021/04/23 07:47:35;;;;;;;18.77;6.72;;;8.50;99.90;;;;;;5026839;28;20040;-47
2021/04/23 07:50:02;;;;;;;20.15;6.65;;;8.60;99.90;;;;;;5026366;28;20104;-47
2021/04/23 07:52:28;;;;;;;15.27;5.53;;;8.60;99.90;;;;;;5027781;28;20018;-48
2021/04/23 07:54:56;;;;;;;14.30;5.47;;;8.70;99.90;;;;;;5027722;28;20124;-46
2021/04/23 07:57:22;;;;;;;26.55;7.22;;;8.90;99.90;;;;;;5027400;28;20289;-48
2021/04/23 07:59:47;;;;;;;17.65;6.05;;;9.00;99.90;;;;;;5028022;28;20459;-49
2021/04/23 08:02:13;;;;;;;20.65;6.53;;;9.20;99.90;;;;;;5028141;28;20097;-48
2021/04/23 08:04:39;;;;;;;14.00;5.45;;;9.40;99.90;;;;;;5027636;28;20084;-49
2021/04/23 08:07:08;;;;;;;18.40;5.20;;;9.40;99.80;;;;;;5028594;28;20048;-49
2021/04/23 08:09:36;;;;;;;15.25;6.07;;;9.70;99.90;;;;;;5027508;28;20302;-47
2021/04/23 08:12:02;;;;;;;14.20;6.53;;;9.90;99.10;;;;;;5030349;28;20041;-48
2021/04/23 08:14:28;;;;;;;10.30;4.75;;;10.40;97.50;;;;;;5030792;28;20609;-48
2021/04/23 08:16:53;;;;;;;14.27;5.65;;;11.30;96.10;;;;;;5031662;28;20590;-47
2021/04/23 08:19:19;;;;;;;21.20;5.45;;;11.50;93.20;;;;;;5030890;28;20033;-47
2021/04/23 08:21:45;;;;;;;19.92;6.38;;;11.40;91.80;;;;;;5031880;28;20057;-46
2021/04/23 08:24:11;;;;;;;15.25;5.40;;;10.80;92.40;;;;;;5030129;28;20467;-48
2021/04/23 08:26:38;;;;;;;10.73;5.35;;;11.20;93.40;;;;;;5031447;28;20079;-48
2021/04/23 08:29:03;;;;;;;24.25;5.63;;;11.80;90.70;;;;;;5030046;28;20025;-47
2021/04/23 08:31:29;;;;;;;17.17;5.13;;;12.50;89.10;;;;;;5031551;28;20479;-47
2021/04/23 08:33:55;;;;;;;13.95;5.15;;;12.70;81.30;;;;;;5030905;28;20033;-48
2021/04/23 08:36:20;;;;;;;14.00;6.03;;;12.50;82.10;;;;;;5031335;28;20071;-47
2021/04/23 08:38:46;;;;;;;10.45;5.15;;;12.30;81.30;;;;;;5030659;28;20084;-48
2021/04/23 08:41:11;;;;;;;16.05;4.85;;;12.50;82.00;;;;;;5031072;28;20035;-48
2021/04/23 08:43:37;;;;;;;16.20;5.13;;;12.10;80.50;;;;;;5029706;28;20405;-51
2021/04/23 08:46:03;;;;;;;13.40;4.47;;;12.50;80.50;;;;;;5030187;28;20056;-49
2021/04/23 08:48:32;;;;;;;11.35;4.28;;;13.20;75.80;;;;;;5030155;28;20479;-48
2021/04/23 08:50:58;;;;;;;11.52;4.80;;;13.20;74.30;;;;;;5029714;28;20026;-48
2021/04/23 08:53:27;;;;;;;12.13;4.78;;;13.30;74.40;;;;;;5029492;28;20172;-50
2021/04/23 08:55:57;;;;;;;11.17;3.67;;;13.40;73.10;;;;;;5030799;28;20115;-48
2021/04/23 08:58:23;;;;;;;10.15;3.53;;;13.00;70.20;;;;;;5030149;28;20028;-48
2021/04/23 09:00:49;;;;;;;12.38;4.90;;;13.00;71.10;;;;;;5030860;28;20135;-48
2021/04/23 09:03:23;;;;;;;10.23;4.90;;;14.20;72.10;;;;;;5030757;28;20454;-47
2021/04/23 09:06:14;;;;;;;9.73;4.20;;;14.70;65.80;;;;;;5027939;28;20026;-49
2021/04/23 09:08:52;;;;;;;11.57;3.70;;;14.30;66.00;;;;;;5028971;28;20033;-48
2021/04/23 09:11:21;;;;;;;9.55;3.70;;;13.70;68.70;;;;;;5029290;28;20026;-47
2021/04/23 09:13:58;;;;;;;16.20;5.20;;;14.50;69.70;;;;;;5027776;28;20029;-48
2021/04/23 09:16:44;;;;;;;12.10;4.60;;;16.00;63.40;;;;;;5026972;28;20036;-48
2021/04/23 09:19:22;;;;;;;11.45;3.80;;;16.40;59.70;;;;;;5023037;28;20128;-49
2021/04/23 09:21:59;;;;;;;12.23;4.15;;;16.00;60.10;;;;;;5027120;28;20029;-47
2021/04/23 09:24:33;;;;;;;12.40;3.97;;;15.30;59.50;;;;;;5026654;28;20031;-50
2021/04/23 09:27:07;;;;;;;13.25;4.22;;;15.00;61.80;;;;;;5029018;28;20013;-49
2021/04/23 09:29:35;;;;;;;9.40;4.55;;;15.00;61.30;;;;;;5028424;28;20041;-49
2021/04/23 09:32:15;;;;;;;10.85;4.15;;;16.20;57.30;;;;;;5026783;28;20096;-51
2021/04/23 09:34:58;;;;;;;11.83;4.70;;;18.10;52.30;;;;;;5026542;28;20116;-50
2021/04/23 09:37:28;;;;;;;11.65;4.00;;;17.70;49.40;;;;;;5026493;28;20104;-48
2021/04/23 09:40:13;;;;;;;8.65;3.90;;;16.10;55.30;;;;;;5027811;28;20030;-50
2021/04/23 09:42:56;;;;;;;9.73;3.28;;;16.20;53.40;;;;;;5028974;28;20078;-48
2021/04/23 09:45:24;;;;;;;8.57;2.83;;;17.60;54.00;;;;;;5028822;28;20501;-49
2021/04/23 09:47:50;;;;;;;10.15;3.63;;;17.70;52.00;;;;;;5026664;28;20033;-49
2021/04/23 09:50:17;;;;;;;11.18;3.45;;;17.40;50.20;;;;;;5027664;28;20033;-51
2021/04/23 09:52:54;;;;;;;12.80;3.47;;;17.80;54.60;;;;;;5028673;28;20034;-49
2021/04/23 09:55:27;;;;;;;6.93;3.20;;;18.50;50.30;;;;;;5027332;28;20017;-49
2021/04/23 09:58:00;;;;;;;9.90;3.30;;;18.10;48.70;;;;;;5025702;28;20411;-48
2021/04/23 10:00:29;;;;;;;7.55;3.83;;;18.70;50.00;;;;;;5028474;28;20506;-48
2021/04/23 10:02:59;;;;;;;8.00;2.88;;;19.10;47.50;;;;;;5028941;28;20120;-48
2021/04/23 10:05:38;;;;;;;11.07;3.17;;;20.60;45.40;;;;;;5026740;28;20060;-51
2021/04/23 10:08:08;;;;;;;9.65;3.55;;;21.40;44.70;;;;;;5025661;28;20041;-49
2021/04/23 10:10:34;;;;;;;9.43;3.35;;;22.30;44.40;;;;;;5024532;28;20022;-50
2021/04/23 10:13:06;;;;;;;6.85;3.42;;;22.50;43.10;;;;;;5026767;28;20017;-51
2021/04/23 10:15:37;;;;;;;9.90;3.95;;;22.20;40.50;;;;;;5037085;28;20361;-48
2021/04/23 10:18:06;;;;;;;9.40;3.08;;;20.30;42.30;;;;;;5026203;28;20018;-49
2021/04/23 10:20:35;;;;;;;8.98;3.95;;;20.10;45.70;;;;;;5024877;28;20448;-50
2021/04/23 10:23:04;;;;;;;12.53;3.73;;;20.40;46.30;;;;;;5027236;28;20031;-50
2021/04/23 10:25:30;;;;;;;8.10;3.40;;;19.60;43.50;;;;;;5025475;28;20276;-50
2021/04/23 10:27:57;;;;;;;8.05;3.15;;;20.10;44.30;;;;;;5027438;28;20025;-50
2021/04/23 10:30:30;;;;;;;5.82;2.88;;;21.00;44.00;;;;;;5028175;28;20061;-50
2021/04/23 10:32:58;;;;;;;9.98;3.55;;;20.90;41.70;;;;;;5025556;28;20299;-48
2021/04/23 10:35:25;;;;;;;7.95;2.85;;;20.30;41.20;;;;;;5026020;28;20109;-49
2021/04/23 10:37:53;;;;;;;8.82;3.17;;;20.30;42.90;;;;;;5031944;28;20449;-49
2021/04/23 10:40:23;;;;;;;8.48;4.03;;;19.90;43.90;;;;;;5026399;28;20071;-48
2021/04/23 10:42:54;;;;;;;12.30;4.07;;;19.10;43.60;;;;;;5027910;28;20024;-51
2021/04/23 10:45:21;;;;;;;13.27;3.72;;;18.10;44.60;;;;;;5028041;28;20025;-49
2021/04/23 10:47:49;;;;;;;12.80;3.65;;;17.80;48.80;;;;;;5027396;28;20479;-49
2021/04/23 10:50:18;;;;;;;12.63;3.97;;;19.10;47.60;;;;;;5027455;28;20021;-50
2021/04/23 10:53:04;;;;;;;11.52;3.55;;;19.80;42.50;;;;;;5027085;28;20025;-52
2021/04/23 10:55:37;;;;;;;9.77;4.53;;;21.00;43.90;;;;;;5025139;28;20029;-51
2021/04/23 10:58:03;;;;;;;11.75;3.95;;;21.10;42.90;;;;;;5026962;28;20033;-52
2021/04/23 11:00:39;;;;;;;8.77;3.85;;;21.40;42.10;;;;;;5027516;28;20029;-53
2021/04/23 11:03:21;;;;;;;10.13;3.83;;;21.40;40.80;;;;;;5027334;28;20048;-51
2021/04/23 11:05:48;;;;;;;8.40;3.40;;;21.20;43.50;;;;;;5027587;28;20060;-50
2021/04/23 11:08:14;;;;;;;9.45;3.85;;;21.80;42.20;;;;;;5024771;28;20444;-49
2021/04/23 11:11:02;;;;;;;14.82;3.53;;;22.10;40.20;;;;;;5027654;28;20057;-51
2021/04/23 11:13:32;;;;;;;9.73;3.05;;;22.10;39.40;;;;;;5027926;28;20407;-50
2021/04/23 11:16:20;;;;;;;11.10;4.30;;;22.00;42.20;;;;;;5027575;28;20075;-50
2021/04/23 11:18:47;;;;;;;9.13;3.78;;;21.90;40.30;;;;;;5026907;28;20080;-49
2021/04/23 11:21:31;;;;;;;10.38;3.70;;;21.70;39.60;;;;;;5027586;28;20186;-51
2021/04/23 11:24:14;;;;;;;7.93;2.92;;;21.20;39.80;;;;;;5024957;28;20488;-50
2021/04/23 11:27:03;;;;;;;9.25;3.45;;;21.60;42.80;;;;;;5026407;28;20033;-50
2021/04/23 11:29:34;;;;;;;8.40;3.00;;;21.40;39.10;;;;;;5018499;28;20105;-51
2021/04/23 11:32:22;;;;;;;10.60;3.25;;;22.80;41.50;;;;;;5020118;28;20113;-51
2021/04/23 11:35:10;;;;;;;6.50;3.00;;;23.00;40.20;;;;;;5027463;28;20029;-51
2021/04/23 11:37:41;;;;;;;10.82;3.60;;;22.40;36.70;;;;;;5027678;28;20030;-50
2021/04/23 11:40:13;;;;;;;12.07;3.38;;;23.10;40.20;;;;;;5028426;28;20025;-50
2021/04/23 11:42:38;;;;;;;15.95;3.97;;;24.30;38.80;;;;;;5028307;28;20256;-50
2021/04/23 11:45:12;;;;;;;10.82;3.75;;;23.40;41.70;;;;;;5027114;28;20028;-50
2021/04/23 11:47:46;;;;;;;11.38;4.32;;;23.80;40.10;;;;;;5031403;28;20036;-51
2021/04/23 11:50:14;;;;;;;7.95;2.92;;;23.90;36.70;;;;;;5031456;28;20467;-51
2021/04/23 11:52:43;;;;;;;10.40;3.63;;;24.20;38.40;;;;;;5032095;28;20033;-50
2021/04/23 11:55:20;;;;;;;11.68;3.25;;;24.20;36.40;;;;;;5032491;28;20032;-50
2021/04/23 11:57:52;;;;;;;13.32;3.47;;;24.50;37.60;;;;;;5032141;28;20380;-50
2021/04/23 12:00:23;;;;;;;9.63;3.92;;;24.10;35.80;;;;;;5032238;28;20025;-49
2021/04/23 12:02:54;;;;;;;10.35;3.33;;;24.50;37.60;;;;;;5032176;28;20127;-49
2021/04/23 12:05:36;;;;;;;12.88;3.50;;;24.40;35.00;;;;;;5031636;28;20025;-51
2021/04/23 12:08:08;;;;;;;7.90;3.50;;;22.80;37.00;;;;;;5031353;28;20188;-48
2021/04/23 12:10:37;;;;;;;9.85;3.40;;;22.60;37.90;;;;;;5031430;28;20506;-49
2021/04/23 12:13:10;;;;;;;12.32;4.00;;;21.70;41.40;;;;;;5032260;28;20033;-50
2021/04/23 12:15:37;;;;;;;10.60;3.88;;;21.00;41.30;;;;;;5032159;28;20498;-50
2021/04/23 12:18:05;;;;;;;8.38;3.38;;;20.40;40.40;;;;;;5031218;28;20030;-48
2021/04/23 12:20:35;;;;;;;12.13;3.90;;;20.50;42.20;;;;;;5031594;28;20104;-50
2021/04/23 12:23:01;;;;;;;9.63;3.80;;;20.50;40.90;;;;;;5031713;28;20026;-49
2021/04/23 12:25:34;;;;;;;10.75;3.42;;;20.60;42.30;;;;;;5031717;28;20032;-49
2021/04/23 12:28:23;;;;;;;6.18;2.97;;;20.20;44.00;;;;;;5030988;28;20581;-47
2021/04/23 12:31:00;;;;;;;9.02;3.92;;;20.00;43.70;;;;;;5031475;28;20040;-49
2021/04/23 12:33:51;;;;;;;12.30;3.33;;;19.60;45.50;;;;;;5031643;28;20475;-48
2021/04/23 12:36:47;;;;;;;10.95;3.38;;;19.20;42.60;;;;;;5031944;28;20075;-51
2021/04/23 12:39:26;;;;;;;10.95;4.18;;;19.00;43.30;;;;;;5030571;28;20040;-49
2021/04/23 12:42:03;;;;;;;9.68;3.80;;;19.20;43.90;;;;;;5030346;28;20029;-49
2021/04/23 12:44:33;;;;;;;12.82;3.78;;;19.30;41.90;;;;;;5031538;28;20026;-49
2021/04/23 12:47:11;;;;;;;;;;;18.70;41.50;;;;;;5031893;28;20029;-49
2021/04/23 12:49:42;;;;;;;9.25;3.67;;;18.10;46.50;;;;;;5030235;28;19941;-51
2021/04/23 12:52:09;;;;;;;;;;;18.60;45.00;;;;;;5031741;28;20022;-50